Vila Pavao, Brazil
Current Conditions -  °F | °C
As of 12:00 PM on Thursday 29 Jan 2015 (Local Time) from SBVT Reporting Station
Few Clouds Few Clouds  
Wind Chill: 90°   Ceiling: Unl
Heat Index: 92°   Visibility: 6mi
Dew Point: 66°   Wind: 16mph
Humidity: 46%   Direction: 20°NNE
Pressure: 29.94"   Gusts: NA
Location:  18.62°S, 40.61°W
Report Text: SBVT 291400Z 02014KT 9999 FEW030 32/19 Q1014
Loading
Personal Weather Stations






























Interactive Weather Map New forecast layout! Learn more

10-Day Weather Forecast

Advertisements
Track Severe Weather on mobile